sensor_id;sensor_type;location;lat;lon;timestamp;P1;P2;P0
47709;PMS7003;33473;51.640;5.892;2023-02-26T00:03:29;4.69;7.31;4.26
47709;PMS7003;33473;51.640;5.892;2023-02-26T00:16:48;4.45;7.09;4.15
47709;PMS7003;33473;51.640;5.892;2023-02-26T00:30:08;5.05;7.31;4.15
47709;PMS7003;33473;51.640;5.892;2023-02-26T00:43:28;5.89;8.08;4.37
47709;PMS7003;33473;51.640;5.892;2023-02-26T00:56:47;5.41;7.31;4.15
47709;PMS7003;33473;51.640;5.892;2023-02-26T01:10:07;10.69;6.55;3.93
47709;PMS7003;33473;51.640;5.892;2023-02-26T01:23:27;5.29;6.11;3.71
47709;PMS7003;33473;51.640;5.892;2023-02-26T01:36:47;1.44;4.37;2.62
47709;PMS7003;33473;51.640;5.892;2023-02-26T01:50:06;1.68;4.15;2.62
47709;PMS7003;33473;51.640;5.892;2023-02-26T02:03:26;2.04;4.8;3.06
47709;PMS7003;33473;51.640;5.892;2023-02-26T02:16:46;2.04;4.37;2.62
47709;PMS7003;33473;51.640;5.892;2023-02-26T02:30:05;1.8;4.48;2.73
47709;PMS7003;33473;51.640;5.892;2023-02-26T02:43:25;2.16;3.82;2.41
47709;PMS7003;33473;51.640;5.892;2023-02-26T02:56:44;1.32;3.71;2.41
47709;PMS7003;33473;51.640;5.892;2023-02-26T03:10:04;0.96;3.5;2.19
47709;PMS7003;33473;51.640;5.892;2023-02-26T03:23:24;0.72;2.95;1.86
47709;PMS7003;33473;51.640;5.892;2023-02-26T03:36:43;0.01;3.17;1.97
47709;PMS7003;33473;51.640;5.892;2023-02-26T03:50:03;0.96;3.93;2.3
47709;PMS7003;33473;51.640;5.892;2023-02-26T04:03:23;1.2;3.28;2.08
47709;PMS7003;33473;51.640;5.892;2023-02-26T04:16:42;0.12;3.06;1.97
47709;PMS7003;33473;51.640;5.892;2023-02-26T04:43:22;0.96;3.06;1.97
47709;PMS7003;33473;51.640;5.892;2023-02-26T04:56:41;0.48;3.17;2.08
47709;PMS7003;33473;51.640;5.892;2023-02-26T05:10:01;1.08;2.95;1.86
47709;PMS7003;33473;51.640;5.892;2023-02-26T05:23:21;0.01;2.73;1.86
47709;PMS7003;33473;51.640;5.892;2023-02-26T05:36:40;1.32;3.5;2.08
47709;PMS7003;33473;51.640;5.892;2023-02-26T05:50:00;1.2;3.06;1.86
47709;PMS7003;33473;51.640;5.892;2023-02-26T06:03:20;1.08;3.17;1.97
47709;PMS7003;33473;51.640;5.892;2023-02-26T06:16:39;0.24;2.84;1.75
47709;PMS7003;33473;51.640;5.892;2023-02-26T06:29:59;0.24;2.19;1.54
47709;PMS7003;33473;51.640;5.892;2023-02-26T06:43:19;0.01;2.41;1.75
47709;PMS7003;33473;51.640;5.892;2023-02-26T06:56:38;0.72;2.73;1.97
47709;PMS7003;33473;51.640;5.892;2023-02-26T07:09:58;0.01;2.95;1.86
47709;PMS7003;33473;51.640;5.892;2023-02-26T07:23:18;1.32;2.41;1.54
47709;PMS7003;33473;51.640;5.892;2023-02-26T07:36:37;0.01;2.52;1.64
47709;PMS7003;33473;51.640;5.892;2023-02-26T07:49:57;0.01;2.08;1.64
47709;PMS7003;33473;51.640;5.892;2023-02-26T08:03:17;0.01;2.19;1.43
47709;PMS7003;33473;51.640;5.892;2023-02-26T08:16:37;0.01;1.86;
47709;PMS7003;33473;51.640;5.892;2023-02-26T08:29:56;0.01;1.97;1.32
47709;PMS7003;33473;51.640;5.892;2023-02-26T08:43:16;0.01;1.75;1.32
47709;PMS7003;33473;51.640;5.892;2023-02-26T08:56:36;0.01;1.86;1.32
47709;PMS7003;33473;51.640;5.892;2023-02-26T09:09:55;3.85;1.64;1.21
47709;PMS7003;33473;51.640;5.892;2023-02-26T09:23:15;0.84;1.75;1.21
47709;PMS7003;33473;51.640;5.892;2023-02-26T09:36:35;0.01;1.32;
47709;PMS7003;33473;51.640;5.892;2023-02-26T09:49:54;0.01;1.43;
47709;PMS7003;33473;51.640;5.892;2023-02-26T10:03:14;0.01;1.32;
47709;PMS7003;33473;51.640;5.892;2023-02-26T10:16:34;0.01;1.32;
47709;PMS7003;33473;51.640;5.892;2023-02-26T10:29:53;0.01;1.32;
47709;PMS7003;33473;51.640;5.892;2023-02-26T10:43:13;0.01;;
47709;PMS7003;33473;51.640;5.892;2023-02-26T10:56:33;0.01;1.32;
47709;PMS7003;33473;51.640;5.892;2023-02-26T11:09:52;0.01;1.21;
47709;PMS7003;33473;51.640;5.892;2023-02-26T11:23:12;0.01;1.32;
47709;PMS7003;33473;51.640;5.892;2023-02-26T11:36:32;0.01;1.32;
47709;PMS7003;33473;51.640;5.892;2023-02-26T11:49:54;0.01;1.21;
47709;PMS7003;33473;51.640;5.892;2023-02-26T12:03:13;0.01;1.21;
47709;PMS7003;33473;51.640;5.892;2023-02-26T12:16:33;0.01;1.43;
47709;PMS7003;33473;51.640;5.892;2023-02-26T12:29:53;0.01;1.21;
47709;PMS7003;33473;51.640;5.892;2023-02-26T12:43:13;0.01;1.43;
47709;PMS7003;33473;51.640;5.892;2023-02-26T12:56:32;0.01;1.32;
47709;PMS7003;33473;51.640;5.892;2023-02-26T13:09:52;0.01;1.32;
47709;PMS7003;33473;51.640;5.892;2023-02-26T13:23:12;0.01;1.32;
47709;PMS7003;33473;51.640;5.892;2023-02-26T13:36:31;0.01;1.32;
47709;PMS7003;33473;51.640;5.892;2023-02-26T13:49:51;0.01;1.32;
47709;PMS7003;33473;51.640;5.892;2023-02-26T14:03:11;0.01;1.43;
47709;PMS7003;33473;51.640;5.892;2023-02-26T14:16:30;0.01;1.43;
47709;PMS7003;33473;51.640;5.892;2023-02-26T14:29:50;0.01;1.43;
47709;PMS7003;33473;51.640;5.892;2023-02-26T14:43:10;0.01;1.43;
47709;PMS7003;33473;51.640;5.892;2023-02-26T14:56:29;0.01;1.32;
47709;PMS7003;33473;51.640;5.892;2023-02-26T15:09:49;0.01;1.54;1.21
47709;PMS7003;33473;51.640;5.892;2023-02-26T15:23:09;0.01;1.43;1.21
47709;PMS7003;33473;51.640;5.892;2023-02-26T15:36:28;0.01;1.54;1.21
47709;PMS7003;33473;51.640;5.892;2023-02-26T15:49:48;0.01;1.54;
47709;PMS7003;33473;51.640;5.892;2023-02-26T16:03:08;0.01;1.21;
47709;PMS7003;33473;51.640;5.892;2023-02-26T16:16:28;0.01;1.32;
47709;PMS7003;33473;51.640;5.892;2023-02-26T16:29:47;0.01;1.43;
47709;PMS7003;33473;51.640;5.892;2023-02-26T16:43:07;0.01;1.32;
47709;PMS7003;33473;51.640;5.892;2023-02-26T16:56:27;0.01;1.21;
47709;PMS7003;33473;51.640;5.892;2023-02-26T17:09:46;0.01;1.32;
47709;PMS7003;33473;51.640;5.892;2023-02-26T17:23:06;0.01;1.32;
47709;PMS7003;33473;51.640;5.892;2023-02-26T17:36:26;0.01;1.43;1.21
47709;PMS7003;33473;51.640;5.892;2023-02-26T17:49:45;0.01;1.64;1.32
47709;PMS7003;33473;51.640;5.892;2023-02-26T18:03:05;0.01;1.43;
47709;PMS7003;33473;51.640;5.892;2023-02-26T18:16:25;0.01;1.54;
47709;PMS7003;33473;51.640;5.892;2023-02-26T18:29:44;0.6;2.08;1.54
47709;PMS7003;33473;51.640;5.892;2023-02-26T18:43:04;0.01;2.73;1.97
47709;PMS7003;33473;51.640;5.892;2023-02-26T18:56:23;0.84;3.5;2.52
47709;PMS7003;33473;51.640;5.892;2023-02-26T19:09:43;0.01;2.95;2.08
47709;PMS7003;33473;51.640;5.892;2023-02-26T19:23:03;0.01;2.62;1.86
47709;PMS7003;33473;51.640;5.892;2023-02-26T19:36:22;1.8;3.39;2.19
47709;PMS7003;33473;51.640;5.892;2023-02-26T19:49:42;0.0;2.73;2.08
47709;PMS7003;33473;51.640;5.892;2023-02-26T20:03:02;0.01;2.62;1.86
47709;PMS7003;33473;51.640;5.892;2023-02-26T20:16:21;0.6;2.62;1.75
47709;PMS7003;33473;51.640;5.892;2023-02-26T20:29:41;0.48;2.95;1.86
47709;PMS7003;33473;51.640;5.892;2023-02-26T20:43:02;0.01;2.52;1.75
47709;PMS7003;33473;51.640;5.892;2023-02-26T20:56:22;0.01;2.62;1.97
47709;PMS7003;33473;51.640;5.892;2023-02-26T21:09:42;2.52;2.95;1.75
47709;PMS7003;33473;51.640;5.892;2023-02-26T21:23:01;0.01;2.62;1.64
47709;PMS7003;33473;51.640;5.892;2023-02-26T21:36:21;1.92;2.84;1.75
47709;PMS7003;33473;51.640;5.892;2023-02-26T21:49:41;1.08;2.52;1.86
47709;PMS7003;33473;51.640;5.892;2023-02-26T22:03:00;0.96;3.06;2.19
47709;PMS7003;33473;51.640;5.892;2023-02-26T22:16:20;0.72;2.62;1.86
47709;PMS7003;33473;51.640;5.892;2023-02-26T22:29:40;0.01;2.62;1.75
47709;PMS7003;33473;51.640;5.892;2023-02-26T22:42:59;0.01;2.84;1.86
47709;PMS7003;33473;51.640;5.892;2023-02-26T22:56:19;0.48;3.28;1.97
47709;PMS7003;33473;51.640;5.892;2023-02-26T23:09:39;1.08;2.95;1.97
47709;PMS7003;33473;51.640;5.892;2023-02-26T23:22:58;0.0;3.06;1.97
47709;PMS7003;33473;51.640;5.892;2023-02-26T23:36:18;0.01;3.06;2.08
47709;PMS7003;33473;51.640;5.892;2023-02-26T23:49:38;2.28;3.5;2.3
